Flight Track Log - Related Links

Times and Time Zones

All times are in EDT time to prevent confusion due to time zone crossing. See the SWA1535 flight status page for this flight to view local times or setup timezone preferences in your user account.

Time Position Orientation Groundspeed Altitude Reporting Facility
EDT Latitude Longitude Course Direction KTS MPH feet Rate Location/Type
Tue 07:39:04 PM 38.6864 -90.3083 168° South 203 234 4,500  Level Kansas City Center
Tue 07:40:06 PM 38.6842 -90.3931 268° West 233 268 7,700 2,952 Climbing Kansas City Center
Tue 07:41:08 PM 38.6908 -90.4831 275° West 270 311 10,600 3,339 Climbing Kansas City Center
Tue 07:42:10 PM 38.7678 -90.5961 311° West 344 396 14,600 3,581 Climbing Kansas City Center
Tue 07:43:00 PM 38.7247 -90.6649 318° Northwest  Level FlightAware Approximate
Tue 07:43:12 PM 38.8356 -90.6925 312° West 357 411 18,000  Level Kansas City Center
Tue 07:44:14 PM 38.9072 -90.7950 312° West 376 433 21,200 2,952 Climbing Kansas City Center
Tue 07:45:16 PM 38.9806 -90.9011 312° West 392 451 24,100 2,419 Climbing Kansas City Center
Tue 07:46:18 PM 39.0569 -91.0111 312° West 406 467 26,200 2,032 Climbing Kansas City Center
Tue 07:47:20 PM 39.1281 -91.1372 306° West 432 497 28,300 2,419 Climbing Kansas City Center
Tue 07:48:22 PM 39.1972 -91.3036 298° West 441 507 31,200 2,613 Climbing Kansas City Center
Tue 07:49:24 PM 39.2497 -91.4422 296° West 435 501 33,700 1,344 Climbing Kansas City Center
Tue 07:50:27 PM 39.3028 -91.5769 297° West 426 490 34,000 144 Climbing Kansas City Center
Tue 07:51:29 PM 39.3589 -91.7203 297° West 424 488 34,000  Level Kansas City Center
Tue 07:52:31 PM 39.4117 -91.8528 297° West 420 483 34,000  Level Kansas City Center
Tue 07:53:33 PM 39.4633 -91.9872 296° West 420 483 34,000  Level Kansas City Center
Tue 07:54:35 PM 39.5144 -92.1222 296° West 420 483 34,000  Level Kansas City Center
Tue 07:55:37 PM 39.5769 -92.2817 297° West 417 480 34,000  Level Kansas City Center
Tue 07:56:39 PM 39.6283 -92.4183 296° West 420 483 34,000  Level Kansas City Center
Tue 07:57:41 PM 39.6917 -92.5442 303° West 429 494 34,000  Level Kansas City Center
Tue 07:58:43 PM 39.7667 -92.6578 311° West 419 482 34,000  Level Kansas City Center
Tue 07:59:45 PM 39.8425 -92.7714 311° West 420 483 34,000  Level Kansas City Center
Tue 08:00:47 PM 39.9167 -92.8878 310° West 419 482 34,000  Level Kansas City Center
Tue 08:01:49 PM 40.0053 -93.0278 310° West 418 481 34,000  Level Kansas City Center
Tue 08:02:51 PM 40.0786 -93.1436 310° West 417 480 34,000  Level Kansas City Center
Tue 08:03:53 PM 40.1511 -93.2578 310° West 411 473 34,000  Level Kansas City Center
Tue 08:04:55 PM 40.2258 -93.3742 310° West 416 479 34,000  Level Kansas City Center
Tue 08:05:57 PM 40.2994 -93.4914 309° West 418 481 34,000  Level Kansas City Center
Tue 08:07:10 PM 40.3861 -93.6306 309° West 417 480 34,000  Level Minneapolis Center
Tue 08:08:12 PM 40.4661 -93.7764 306° West 414 476 34,000  Level Minneapolis Center
Tue 08:09:13 PM 40.4972 -93.9189 286° West 407 468 34,000 -49 Level Minneapolis Center
Tue 08:10:15 PM 40.5311 -94.0603 288° West 408 470 33,900 -1,366 Descending Minneapolis Center
Tue 08:11:16 PM 40.5653 -94.2006 288° West 405 466 31,200 -2,625 Descending Minneapolis Center
Tue 08:13:11 PM 40.6353 -94.4806 288° West 403 464 26,200 -2,441 Descending Kansas City Center
Tue 08:14:13 PM 40.6661 -94.6086 288° West 392 451 24,000 -2,198 Descending Kansas City Center
Tue 08:15:22 PM 40.7033 -94.7658 287° West 377 434 21,400 -2,153 Descending Minneapolis Center
Tue 08:16:24 PM 40.7311 -94.8917 286° West 362 417 19,300 -2,049 Descending Minneapolis Center
Tue 08:17:25 PM 40.7586 -95.0103 287° West 344 396 17,200 -2,082 Descending Minneapolis Center
Tue 08:18:02 PM 40.7919 -95.0739 305° West 331 381 15,900 -1,935 Descending Minneapolis Center
Tue 08:18:27 PM 40.7928 -95.1222 271° West 334 384 15,200 -2,262 Descending Minneapolis Center
Tue 08:19:03 PM 40.8453 -95.1747 323° Northwest 339 390 13,600 -2,164 Descending Minneapolis Center
Tue 08:19:28 PM 40.8564 -95.2150 290° West 338 389 13,000 -2,291 Descending Minneapolis Center
Tue 08:19:58 PM 40.8981 -95.2644 318° Northwest 335 386 11,500 -2,419 Descending Minneapolis Center
Tue 08:20:30 PM 40.9136 -95.3119 293° West 335 386 10,500 -1,600 Descending Minneapolis Center
Tue 08:20:58 PM 40.9553 -95.3622 318° Northwest 337 388 9,900 -1,180 Descending Minneapolis Center
Tue 08:21:31 PM 40.9714 -95.4036 297° West 333 383 9,300 -1,636 Descending Minneapolis Center
Tue 08:21:53 PM 41.0028 -95.4422 317° Northwest 300 345 8,400 -1,548 Descending Minneapolis Center
Tue 08:22:33 PM 41.0222 -95.4881 299° West 314 361 7,700 -1,426 Descending Minneapolis Center
Tue 08:23:34 PM 41.0839 -95.5908 309° West 302 348 6,000 -1,463 Descending Minneapolis Center
Tue 08:24:36 PM 41.1342 -95.6739 309° West 296 341 4,700 -1,016 Descending Minneapolis Center
Tue 08:25:38 PM 41.1811 -95.7522 309° West 286 329 3,900 -927 Descending Minneapolis Center
Tue 08:26:39 PM 41.2169 -95.8108 309° West 237 273 2,800 -927 Descending Minneapolis Center
Tue 08:27:41 PM 41.2494 -95.8456 321° Northwest 187 215 2,000 -683 Descending Minneapolis Center
Tue 08:28:42 PM 41.2789 -95.8733 325° Northwest 155 178 1,400 -439 Descending Minneapolis Center
Tue 08:29:44 PM 41.3139 -95.9064 325° Northwest 147 169 1,100 -290 Descending Minneapolis Center
Tue 08:31:00 PM 41.3032 -95.8941 90° East  Level Estimated

Login

Don't have an account? Register now (free) for customized features, flight alerts, and more!